Time;durP1;ratioP1;P1;durP2;ratioP2;P2;SDS_P1;SDS_P2;PMS_P1;PMS_P2;Temp;Humidity;BMP_temperature;BMP_pressure;BME280_temperature;BME280_humidity;BME280_pressure;Samples;Min_cycle;Max_cycle;Signal;HPM_P1;HPM_P2
2022/04/11 00:00:00;;;;;;;4.60;1.67;;;2.00;99.90;;;;;;5028575;28;20048;-74
2022/04/11 00:02:26;;;;;;;3.80;1.50;;;1.90;99.90;;;;;;5032530;28;20052;-74
2022/04/11 00:04:52;;;;;;;6.45;1.65;;;2.00;99.90;;;;;;5030991;28;20793;-74
2022/04/11 00:07:17;;;;;;;5.82;1.88;;;1.90;99.90;;;;;;5031386;28;20935;-74
2022/04/11 00:09:43;;;;;;;5.22;1.60;;;1.90;99.90;;;;;;5023990;28;20045;-73
2022/04/11 00:12:10;;;;;;;3.72;1.60;;;1.90;99.90;;;;;;5030127;28;20053;-74
2022/04/11 00:14:36;;;;;;;6.93;1.63;;;1.90;99.90;;;;;;5032753;28;20072;-74
2022/04/11 00:17:03;;;;;;;3.00;1.45;;;1.90;99.90;;;;;;5033251;28;20056;-74
2022/04/11 00:19:31;;;;;;;4.10;1.73;;;1.90;99.90;;;;;;5022717;28;20868;-74
2022/04/11 00:22:01;;;;;;;6.25;1.83;;;1.90;99.90;;;;;;5026295;28;20041;-74
2022/04/11 00:24:27;;;;;;;6.75;2.00;;;1.90;99.90;;;;;;5027165;28;20409;-74
2022/04/11 00:26:53;;;;;;;4.20;1.60;;;1.90;99.90;;;;;;5027052;28;20041;-73
2022/04/11 00:29:19;;;;;;;6.65;1.60;;;1.90;99.90;;;;;;5030926;28;20142;-74
2022/04/11 00:31:44;;;;;;;4.20;1.40;;;1.90;99.90;;;;;;5027216;28;20583;-74
2022/04/11 00:34:10;;;;;;;4.90;1.60;;;1.80;99.90;;;;;;5032718;28;20122;-73
2022/04/11 00:36:36;;;;;;;3.63;1.27;;;2.70;99.90;;;;;;5033505;28;20095;-74
2022/04/11 00:39:02;;;;;;;4.22;1.65;;;1.80;99.90;;;;;;5023912;28;20473;-74
2022/04/11 00:41:28;;;;;;;5.70;1.77;;;1.80;99.90;;;;;;5029998;28;20053;-74
2022/04/11 00:43:54;;;;;;;4.00;1.33;;;1.80;99.90;;;;;;5025688;28;20041;-74
2022/04/11 00:46:20;;;;;;;9.95;2.53;;;1.70;99.90;;;;;;5028973;28;20041;-74
2022/04/11 00:48:46;;;;;;;3.72;1.50;;;1.70;99.90;;;;;;5031267;28;20049;-74
2022/04/11 00:51:24;;;;;;;3.95;1.77;;;1.70;99.90;;;;;;5025788;28;20049;-74
2022/04/11 00:53:52;;;;;;;4.53;1.70;;;1.70;99.90;;;;;;5027653;28;20049;-74
2022/04/11 00:56:19;;;;;;;3.95;1.60;;;1.60;99.90;;;;;;5036940;28;20057;-74
2022/04/11 00:58:45;;;;;;;4.53;1.27;;;1.60;99.90;;;;;;5035062;28;20123;-74
2022/04/11 01:01:11;;;;;;;4.18;1.70;;;1.60;99.90;;;;;;5023457;28;20559;-73
2022/04/11 01:03:36;;;;;;;5.25;1.83;;;2.10;99.90;;;;;;5028505;28;20041;-73
2022/04/11 01:06:03;;;;;;;4.32;1.70;;;1.60;99.90;;;;;;5023718;28;20076;-73
2022/04/11 01:08:29;;;;;;;6.50;1.95;;;1.60;99.90;;;;;;5029935;28;20049;-73
2022/04/11 01:10:55;;;;;;;5.60;1.80;;;1.60;99.90;;;;;;5035204;28;20051;-74
2022/04/11 01:13:22;;;;;;;4.45;1.70;;;1.80;99.90;;;;;;5038691;28;20056;-73
2022/04/11 01:16:02;;;;;;;4.47;1.50;;;1.50;99.90;;;;;;5036694;28;20048;-74
2022/04/11 01:18:32;;;;;;;5.15;1.85;;;1.50;99.90;;;;;;5036232;28;20045;-74
2022/04/11 01:20:57;;;;;;;6.35;2.03;;;1.50;99.90;;;;;;5032414;28;20044;-74
2022/04/11 01:23:23;;;;;;;6.65;1.83;;;1.50;99.90;;;;;;5034990;28;20519;-73
2022/04/11 01:25:50;;;;;;;4.72;1.50;;;1.50;99.90;;;;;;5032397;28;20055;-73
2022/04/11 01:28:17;;;;;;;5.90;1.98;;;1.50;99.90;;;;;;5030134;28;20037;-73
2022/04/11 01:30:42;;;;;;;4.40;1.63;;;1.40;99.90;;;;;;5032870;28;20704;-73
2022/04/11 01:33:24;;;;;;;6.00;2.40;;;1.50;99.90;;;;;;5036910;28;20051;-74
2022/04/11 01:35:50;;;;;;;4.60;1.63;;;1.40;99.90;;;;;;5042822;28;20487;-73
2022/04/11 01:38:17;;;;;;;4.50;1.55;;;1.40;99.90;;;;;;5040960;28;20036;-74
2022/04/11 01:40:53;;;;;;;9.82;2.08;;;1.40;99.90;;;;;;5034833;28;20045;-73
2022/04/11 01:43:19;;;;;;;4.70;1.85;;;1.50;99.90;;;;;;5038128;28;20084;-74
2022/04/11 01:45:45;;;;;;;5.30;1.45;;;1.50;99.90;;;;;;5036258;28;20728;-73
2022/04/11 01:48:11;;;;;;;6.00;1.60;;;1.50;99.90;;;;;;5036043;28;20064;-74
2022/04/11 01:50:37;;;;;;;6.15;1.40;;;1.50;99.90;;;;;;5040593;28;20057;-73
2022/04/11 01:53:14;;;;;;;4.03;1.63;;;1.50;99.90;;;;;;5040353;28;20060;-73
2022/04/11 01:55:40;;;;;;;6.55;1.83;;;1.50;99.90;;;;;;5037751;28;20060;-73
2022/04/11 01:58:07;;;;;;;6.70;1.90;;;1.50;99.90;;;;;;5032571;28;20053;-74
2022/04/11 02:00:34;;;;;;;4.93;1.50;;;1.50;99.90;;;;;;5036730;28;20770;-73
2022/04/11 02:03:01;;;;;;;4.03;1.50;;;1.50;99.90;;;;;;5034828;28;20045;-73
2022/04/11 02:05:27;;;;;;;4.53;1.52;;;2.80;99.90;;;;;;5037067;28;20041;-73
2022/04/11 02:07:54;;;;;;;3.92;1.48;;;1.50;99.90;;;;;;5038890;28;20041;-74
2022/04/11 02:10:20;;;;;;;6.47;1.90;;;1.50;99.90;;;;;;5039936;28;20049;-74
2022/04/11 02:12:47;;;;;;;5.85;1.73;;;1.50;99.90;;;;;;5031769;28;20056;-74
2022/04/11 02:15:13;;;;;;;3.08;1.30;;;1.40;99.90;;;;;;5037161;28;20099;-73
2022/04/11 02:17:39;;;;;;;6.03;1.45;;;1.40;99.90;;;;;;5014799;28;20464;-73
2022/04/11 02:20:06;;;;;;;4.97;1.55;;;1.40;99.90;;;;;;5034521;28;20135;-73
2022/04/11 02:22:52;;;;;;;5.15;2.28;;;1.40;99.90;;;;;;5037903;28;20091;-73
2022/04/11 02:25:20;;;;;;;6.20;1.70;;;1.40;99.90;;;;;;5031884;28;20742;-73
2022/04/11 02:27:46;;;;;;;5.57;2.03;;;1.40;99.90;;;;;;5037255;28;20057;-73
2022/04/11 02:30:14;;;;;;;6.13;1.92;;;1.40;99.90;;;;;;5037697;28;20080;-73
2022/04/11 02:32:43;;;;;;;7.15;1.70;;;1.30;99.90;;;;;;5037974;28;20049;-73
2022/04/11 02:35:11;;;;;;;3.95;1.48;;;1.30;99.90;;;;;;5039196;28;20049;-73
2022/04/11 02:37:37;;;;;;;2.90;1.30;;;1.30;99.90;;;;;;5029843;28;20060;-73
2022/04/11 02:40:05;;;;;;;5.10;1.80;;;1.30;99.90;;;;;;5037990;28;20045;-73
2022/04/11 02:42:31;;;;;;;4.45;1.63;;;1.30;99.90;;;;;;5032563;28;20174;-73
2022/04/11 02:44:57;;;;;;;6.40;1.73;;;1.30;99.90;;;;;;5031686;28;20052;-74
2022/04/11 02:47:23;;;;;;;5.35;1.58;;;1.30;99.90;;;;;;5031289;28;20049;-73
2022/04/11 02:49:49;;;;;;;7.07;1.70;;;1.20;99.90;;;;;;5036611;28;20057;-73
2022/04/11 02:52:15;;;;;;;4.10;1.70;;;1.20;99.90;;;;;;5036978;28;20037;-73
2022/04/11 02:54:41;;;;;;;4.65;2.28;;;1.20;99.90;;;;;;5037860;28;20056;-73
2022/04/11 02:57:08;;;;;;;4.78;1.63;;;1.70;99.90;;;;;;5038305;28;20045;-73
2022/04/11 02:59:35;;;;;;;4.53;1.30;;;1.10;99.90;;;;;;5040726;28;20049;-73
2022/04/11 03:02:02;;;;;;;4.07;1.23;;;1.10;99.90;;;;;;5049309;28;20033;-73
2022/04/11 03:04:29;;;;;;;6.28;1.50;;;1.10;99.90;;;;;;5054447;28;20397;-73
2022/04/11 03:06:56;;;;;;;5.03;1.65;;;1.00;99.90;;;;;;5048136;28;20037;-73
2022/04/11 03:09:22;;;;;;;5.38;1.50;;;1.00;99.90;;;;;;5032886;28;20048;-73
2022/04/11 03:11:48;;;;;;;5.13;1.60;;;1.00;99.90;;;;;;5042344;28;20044;-73
2022/04/11 03:14:14;;;;;;;5.55;1.70;;;1.00;99.90;;;;;;5051045;28;20090;-73
2022/04/11 03:16:43;;;;;;;4.97;1.65;;;1.00;99.90;;;;;;5049524;28;20099;-73
2022/04/11 03:19:09;;;;;;;6.97;1.60;;;0.90;99.90;;;;;;5049741;28;20040;-73
2022/04/11 03:21:35;;;;;;;6.25;1.52;;;0.90;99.90;;;;;;5048480;28;20052;-73
2022/04/11 03:24:00;;;;;;;4.38;1.63;;;0.90;99.90;;;;;;5050733;28;20037;-73
2022/04/11 03:26:26;;;;;;;4.13;1.67;;;0.90;99.90;;;;;;5048067;28;20041;-73
2022/04/11 03:28:52;;;;;;;6.30;2.30;;;0.90;99.90;;;;;;5049925;28;20079;-73
2022/04/11 03:31:18;;;;;;;4.18;1.45;;;0.90;99.90;;;;;;5051141;28;20040;-73
2022/04/11 03:33:43;;;;;;;7.68;2.13;;;0.80;99.90;;;;;;5046225;28;20481;-73
2022/04/11 03:36:09;;;;;;;4.55;2.00;;;0.90;99.90;;;;;;5047443;28;20048;-73
2022/04/11 03:38:36;;;;;;;4.88;1.63;;;0.80;99.90;;;;;;5042409;28;20029;-73
2022/04/11 03:41:02;;;;;;;4.38;1.60;;;0.70;99.90;;;;;;5044239;28;20053;-73
2022/04/11 03:43:27;;;;;;;3.65;1.63;;;0.90;99.90;;;;;;5042540;28;20094;-73
2022/04/11 03:45:55;;;;;;;4.47;1.95;;;1.10;99.90;;;;;;5049654;28;20438;-73
2022/04/11 03:48:20;;;;;;;4.90;1.67;;;1.10;99.90;;;;;;5045099;28;20175;-73
2022/04/11 03:50:46;;;;;;;6.82;2.30;;;1.10;99.90;;;;;;5053109;28;20136;-73
2022/04/11 03:53:12;;;;;;;5.75;1.80;;;1.20;99.90;;;;;;5044924;28;20091;-73
2022/04/11 03:55:38;;;;;;;4.30;1.60;;;1.20;99.90;;;;;;5048749;28;20056;-73
2022/04/11 03:58:04;;;;;;;2.95;1.25;;;1.20;99.90;;;;;;5050239;28;20056;-73
2022/04/11 04:00:29;;;;;;;5.95;1.65;;;2.00;99.90;;;;;;5050757;28;20435;-73
2022/04/11 04:03:06;;;;;;;4.63;1.52;;;1.30;99.90;;;;;;5045497;28;20390;-73
2022/04/11 04:05:32;;;;;;;5.15;1.67;;;1.40;99.90;;;;;;5035087;28;20060;-73
2022/04/11 04:07:58;;;;;;;4.13;1.75;;;1.40;99.90;;;;;;5042014;28;20128;-73
2022/04/11 04:10:27;;;;;;;5.13;1.95;;;1.40;99.90;;;;;;5050182;28;20112;-73
2022/04/11 04:12:59;;;;;;;3.42;1.63;;;1.50;99.90;;;;;;5049277;28;20127;-73
2022/04/11 04:15:25;;;;;;;4.78;1.52;;;1.50;99.90;;;;;;5048859;28;20044;-73
2022/04/11 04:17:55;;;;;;;5.50;1.83;;;1.60;99.90;;;;;;5047551;28;20365;-73
2022/04/11 04:20:20;;;;;;;5.78;1.40;;;1.60;99.90;;;;;;5045187;28;20057;-73
2022/04/11 04:22:46;;;;;;;3.90;1.60;;;1.60;99.90;;;;;;5050000;28;20052;-73
2022/04/11 04:25:12;;;;;;;4.80;1.50;;;1.60;99.90;;;;;;5046969;28;20044;-73
2022/04/11 04:27:38;;;;;;;6.22;1.50;;;1.70;99.90;;;;;;5043976;28;20037;-73
2022/04/11 04:30:05;;;;;;;4.45;1.52;;;1.70;99.90;;;;;;5044112;28;20091;-73
2022/04/11 04:32:31;;;;;;;6.55;1.95;;;1.70;99.90;;;;;;5048833;28;20041;-73
2022/04/11 04:34:57;;;;;;;5.97;1.60;;;1.70;99.90;;;;;;5048070;28;20043;-73
2022/04/11 04:37:22;;;;;;;4.80;1.88;;;1.80;99.90;;;;;;5048389;28;20045;-73
2022/04/11 04:39:48;;;;;;;6.18;1.65;;;1.80;99.90;;;;;;5042940;28;20049;-73
2022/04/11 04:42:21;;;;;;;4.57;1.65;;;1.80;99.90;;;;;;5042696;28;20493;-73
2022/04/11 04:44:49;;;;;;;6.78;2.72;;;1.80;99.90;;;;;;5041722;28;20049;-73
2022/04/11 04:47:15;;;;;;;5.50;1.48;;;1.90;99.90;;;;;;5043465;28;20447;-73
2022/04/11 04:49:42;;;;;;;7.10;1.77;;;2.00;99.90;;;;;;5044167;28;20033;-73
2022/04/11 04:52:08;;;;;;;5.35;1.65;;;1.90;99.90;;;;;;5049008;28;20055;-73
2022/04/11 04:54:35;;;;;;;3.75;1.60;;;1.90;99.90;;;;;;5034669;28;20049;-73
2022/04/11 04:57:01;;;;;;;7.75;2.00;;;2.00;99.90;;;;;;5051943;28;20492;-73
2022/04/11 04:59:27;;;;;;;4.53;2.22;;;2.00;99.90;;;;;;5045182;28;20045;-73
2022/04/11 05:01:59;;;;;;;8.30;2.42;;;2.00;99.90;;;;;;5037909;28;20587;-73
2022/04/11 05:04:25;;;;;;;5.45;1.83;;;2.00;99.90;;;;;;5041038;28;20113;-72
2022/04/11 05:06:50;;;;;;;5.18;2.42;;;2.00;99.90;;;;;;5044837;28;20716;-73
2022/04/11 05:09:17;;;;;;;7.32;2.65;;;3.00;99.90;;;;;;5044561;28;20057;-73
2022/04/11 05:11:45;;;;;;;8.25;2.53;;;2.10;99.90;;;;;;5043654;28;20049;-73
2022/04/11 05:14:11;;;;;;;8.98;2.45;;;2.10;99.90;;;;;;5031356;28;20124;-73
2022/04/11 05:16:41;;;;;;;5.18;2.33;;;2.20;99.90;;;;;;5042001;28;20037;-73
2022/04/11 05:19:10;;;;;;;6.82;2.40;;;2.20;99.90;;;;;;5049885;28;20048;-73
2022/04/11 05:21:35;;;;;;;6.57;2.10;;;2.20;99.90;;;;;;5048426;28;20424;-73
2022/04/11 05:24:02;;;;;;;5.38;2.00;;;2.30;99.90;;;;;;5047024;28;20079;-74
2022/04/11 05:26:28;;;;;;;6.40;2.83;;;2.30;99.90;;;;;;5050278;28;20041;-74
2022/04/11 05:28:54;;;;;;;6.75;3.10;;;2.40;99.90;;;;;;5047976;28;20047;-74
2022/04/11 05:31:20;;;;;;;6.78;2.17;;;2.40;99.90;;;;;;5046774;28;20503;-74
2022/04/11 05:33:46;;;;;;;6.25;1.98;;;2.40;99.90;;;;;;5047823;28;20069;-74
2022/04/11 05:36:12;;;;;;;6.35;2.25;;;2.50;99.90;;;;;;5046276;28;20111;-74
2022/04/11 05:38:38;;;;;;;6.78;2.08;;;2.50;99.90;;;;;;5039457;28;20053;-73
2022/04/11 05:41:04;;;;;;;4.97;2.03;;;2.60;99.90;;;;;;5040734;28;20477;-72
2022/04/11 05:43:30;;;;;;;6.88;1.90;;;2.60;99.90;;;;;;5037707;28;20119;-72
2022/04/11 05:45:55;;;;;;;5.63;2.70;;;2.70;99.90;;;;;;5043121;28;20119;-72
2022/04/11 05:48:21;;;;;;;7.53;2.42;;;2.70;99.90;;;;;;5042726;28;20065;-74
2022/04/11 05:50:47;;;;;;;5.53;2.03;;;2.80;99.90;;;;;;5042867;28;21037;-74
2022/04/11 05:53:14;;;;;;;7.40;2.30;;;2.80;99.90;;;;;;5043745;28;20059;-74
2022/04/11 05:55:41;;;;;;;6.40;2.47;;;2.80;99.90;;;;;;5043020;28;20175;-73
2022/04/11 05:58:06;;;;;;;5.40;2.03;;;2.90;99.90;;;;;;5040272;28;20048;-74
2022/04/11 06:00:34;;;;;;;7.55;2.30;;;3.00;99.90;;;;;;5045727;28;20049;-74
2022/04/11 06:02:59;;;;;;;6.30;2.22;;;3.00;99.90;;;;;;5042371;28;20049;-74
2022/04/11 06:05:25;;;;;;;7.07;2.42;;;3.10;99.90;;;;;;5044122;28;20453;-74
2022/04/11 06:07:51;;;;;;;11.00;3.95;;;3.10;99.90;;;;;;5046562;28;20091;-74
2022/04/11 06:10:16;;;;;;;5.63;2.28;;;3.50;99.90;;;;;;5043001;28;20053;-74
2022/04/11 06:12:42;;;;;;;12.05;3.05;;;3.30;99.90;;;;;;5045717;28;20402;-73
2022/04/11 06:15:08;;;;;;;6.20;2.05;;;3.30;99.90;;;;;;5050135;28;20056;-74
2022/04/11 06:17:34;;;;;;;7.43;2.25;;;3.40;99.90;;;;;;5051179;28;20123;-78
2022/04/11 06:20:02;;;;;;;7.10;1.98;;;3.50;99.90;;;;;;5052054;28;20084;-75
2022/04/11 06:22:28;;;;;;;6.03;2.60;;;3.50;99.90;;;;;;5046913;28;20049;-76
2022/04/11 06:25:01;;;;;;;8.65;2.50;;;3.50;99.90;;;;;;5043277;28;20122;-77
2022/04/11 06:27:27;;;;;;;6.72;2.60;;;3.60;99.90;;;;;;5043718;28;20095;-78
2022/04/11 06:29:56;;;;;;;9.57;2.90;;;3.60;99.90;;;;;;5045118;28;20119;-77
2022/04/11 06:32:31;;;;;;;11.75;3.50;;;3.60;99.90;;;;;;5044388;28;20049;-78
2022/04/11 06:35:00;;;;;;;6.45;2.70;;;3.70;99.90;;;;;;5041971;28;20047;-76
2022/04/11 06:37:27;;;;;;;7.65;3.20;;;3.70;99.90;;;;;;5041525;28;20045;-78
2022/04/11 06:39:53;;;;;;;6.80;2.65;;;3.70;99.90;;;;;;5047916;28;20052;-76
2022/04/11 06:42:19;;;;;;;8.45;3.10;;;3.80;99.90;;;;;;5039514;28;20060;-76
2022/04/11 06:44:45;;;;;;;9.80;2.83;;;3.80;99.90;;;;;;5048743;28;20184;-74
2022/04/11 06:47:12;;;;;;;5.75;2.40;;;3.90;99.90;;;;;;5047788;28;20044;-77
2022/04/11 06:49:38;;;;;;;13.02;3.17;;;3.90;99.90;;;;;;5051206;28;20091;-76
2022/04/11 06:52:05;;;;;;;10.52;3.30;;;4.00;99.90;;;;;;5047375;28;20381;-77
2022/04/11 06:54:31;;;;;;;8.32;3.03;;;4.00;99.90;;;;;;5042468;28;20061;-79
2022/04/11 06:56:57;;;;;;;8.40;2.70;;;4.10;99.90;;;;;;5040321;28;20057;-74
2022/04/11 06:59:23;;;;;;;8.27;2.92;;;4.20;99.90;;;;;;5041550;28;20056;-77
2022/04/11 07:01:51;;;;;;;6.88;2.80;;;4.50;99.90;;;;;;5040996;28;20064;-77
2022/04/11 07:04:17;;;;;;;11.38;2.90;;;4.30;99.90;;;;;;5048060;28;20063;-69
2022/04/11 07:06:43;;;;;;;7.13;3.33;;;4.40;99.90;;;;;;5044469;28;20041;-79
2022/04/11 07:09:09;;;;;;;6.75;3.17;;;4.50;99.90;;;;;;5043143;28;20052;-81
2022/04/11 07:11:34;;;;;;;6.75;2.90;;;4.60;99.90;;;;;;5047851;28;20033;-79
2022/04/11 07:14:00;;;;;;;7.05;3.53;;;4.70;99.90;;;;;;5041737;28;20151;-80
2022/04/11 07:16:26;;;;;;;7.47;2.97;;;4.80;99.90;;;;;;5047675;28;20045;-85
2022/04/11 07:18:51;;;;;;;8.02;3.67;;;4.90;99.90;;;;;;5049621;28;20037;-79
2022/04/11 07:21:17;;;;;;;8.73;3.03;;;5.00;99.90;;;;;;5047607;28;20072;-72
2022/04/11 07:23:44;;;;;;;8.32;3.40;;;5.10;99.90;;;;;;5039154;28;20053;-73
2022/04/11 07:26:09;;;;;;;6.10;3.30;;;5.20;99.90;;;;;;5037506;28;20037;-72
2022/04/11 07:28:35;;;;;;;8.45;3.08;;;5.30;99.90;;;;;;5036917;28;20382;-73
2022/04/11 07:31:04;;;;;;;8.55;2.90;;;6.60;99.90;;;;;;5034669;28;20048;-72
2022/04/11 07:33:30;;;;;;;7.25;3.08;;;5.40;99.90;;;;;;5050783;28;20059;-72
2022/04/11 07:35:59;;;;;;;8.00;3.53;;;5.50;99.90;;;;;;5043033;28;20128;-72
2022/04/11 07:38:24;;;;;;;6.28;2.72;;;5.70;99.90;;;;;;5034235;28;20561;-73
2022/04/11 07:40:50;;;;;;;7.63;2.80;;;5.80;99.90;;;;;;5040449;28;20599;-72
2022/04/11 07:43:16;;;;;;;7.28;3.40;;;5.90;99.90;;;;;;5037162;28;20124;-72
2022/04/11 07:45:43;;;;;;;9.57;3.42;;;5.90;99.90;;;;;;5041597;28;20120;-72
2022/04/11 07:48:09;;;;;;;7.38;3.55;;;6.00;99.90;;;;;;5043995;28;20498;-76
2022/04/11 07:50:35;;;;;;;6.43;2.83;;;6.10;99.90;;;;;;5038611;28;20045;-80
2022/04/11 07:53:00;;;;;;;8.20;3.67;;;6.20;99.90;;;;;;5042438;28;20041;-80
2022/04/11 07:55:26;;;;;;;9.05;3.88;;;6.30;99.90;;;;;;5040422;28;20172;-82
2022/04/11 07:57:53;;;;;;;12.70;3.78;;;6.40;99.90;;;;;;5032226;28;20046;-80
2022/04/11 08:00:20;;;;;;;6.88;3.83;;;6.40;99.90;;;;;;5038959;28;20463;-79
2022/04/11 08:02:53;;;;;;;7.50;3.20;;;6.50;99.90;;;;;;5047072;28;20099;-78
2022/04/11 08:05:19;;;;;;;8.15;3.53;;;6.60;99.90;;;;;;5034903;28;20104;-79
2022/04/11 08:07:46;;;;;;;9.18;3.33;;;6.70;99.90;;;;;;5029956;28;20077;-78
2022/04/11 08:10:13;;;;;;;8.80;3.83;;;6.70;99.90;;;;;;5037802;28;20037;-79
2022/04/11 08:12:39;;;;;;;6.35;3.40;;;6.80;99.90;;;;;;5037202;28;20068;-77
2022/04/11 08:15:06;;;;;;;8.68;3.60;;;6.90;99.90;;;;;;5025833;28;20462;-79
2022/04/11 08:17:32;;;;;;;8.00;3.33;;;7.00;99.90;;;;;;5044248;28;20065;-79
2022/04/11 08:19:58;;;;;;;6.20;3.00;;;7.10;99.90;;;;;;5034986;28;20504;-78
2022/04/11 08:22:24;;;;;;;6.68;3.50;;;7.20;99.90;;;;;;5040518;28;20185;-77
2022/04/11 08:24:54;;;;;;;8.52;4.32;;;7.20;99.90;;;;;;5037474;28;20528;-78
2022/04/11 08:27:23;;;;;;;7.55;3.45;;;7.30;99.90;;;;;;5037649;28;20523;-78
2022/04/11 08:29:49;;;;;;;7.32;3.42;;;7.40;99.90;;;;;;5044676;28;20329;-79
2022/04/11 08:32:17;;;;;;;6.18;3.38;;;7.30;99.90;;;;;;5043652;28;20090;-78
2022/04/11 08:34:43;;;;;;;7.75;3.15;;;7.50;99.90;;;;;;5043514;28;20080;-78
2022/04/11 08:37:08;;;;;;;9.85;4.03;;;7.50;99.90;;;;;;5041285;28;20069;-78
2022/04/11 08:39:34;;;;;;;8.07;3.20;;;7.50;99.90;;;;;;5046328;28;20047;-77
2022/04/11 08:42:01;;;;;;;7.47;3.60;;;7.70;99.90;;;;;;5041505;28;20511;-77
2022/04/11 08:44:28;;;;;;;10.55;3.05;;;7.80;99.90;;;;;;5043488;28;20045;-78
2022/04/11 08:47:01;;;;;;;7.28;3.63;;;7.90;99.90;;;;;;5050574;28;20072;-77
2022/04/11 08:49:31;;;;;;;5.82;2.90;;;8.10;99.90;;;;;;5042943;28;20048;-77
2022/04/11 08:51:57;;;;;;;8.50;3.28;;;8.10;99.90;;;;;;5047157;28;20041;-77
2022/04/11 08:54:23;;;;;;;9.73;3.63;;;8.20;99.90;;;;;;5049224;28;20385;-77
2022/04/11 08:56:48;;;;;;;6.32;3.45;;;8.30;99.90;;;;;;5044190;28;20050;-77
2022/04/11 08:59:14;;;;;;;6.38;3.15;;;8.30;99.90;;;;;;5046795;28;20041;-78
2022/04/11 09:01:44;;;;;;;5.30;2.80;;;8.30;99.90;;;;;;5039850;28;20366;-76
2022/04/11 09:04:12;;;;;;;7.22;2.97;;;8.30;99.90;;;;;;5046222;28;20496;-78
2022/04/11 09:06:38;;;;;;;8.68;3.25;;;8.30;99.90;;;;;;5050383;28;20092;-78
2022/04/11 09:09:03;;;;;;;6.10;2.47;;;8.40;99.90;;;;;;5044297;28;20068;-77
2022/04/11 09:11:35;;;;;;;5.50;2.17;;;8.40;99.90;;;;;;5044276;28;20052;-76
2022/04/11 09:14:03;;;;;;;6.82;2.60;;;8.50;99.90;;;;;;5039831;28;20525;-77
2022/04/11 09:16:50;;;;;;;5.10;2.47;;;8.90;99.90;;;;;;5040955;28;20040;-77
2022/04/11 09:19:24;;;;;;;6.35;3.08;;;8.80;99.90;;;;;;5047073;28;20038;-78
2022/04/11 09:21:54;;;;;;;7.15;3.08;;;9.00;99.90;;;;;;5040877;28;20054;-78
2022/04/11 09:24:22;;;;;;;5.32;2.38;;;9.20;99.90;;;;;;5045542;28;20049;-78
2022/04/11 09:26:49;;;;;;;7.20;2.72;;;9.40;99.90;;;;;;5039369;28;20100;-77
2022/04/11 09:29:15;;;;;;;9.77;2.53;;;9.50;99.90;;;;;;5036854;28;20068;-77
2022/04/11 09:31:41;;;;;;;5.13;2.60;;;9.70;99.90;;;;;;5042489;28;20042;-77
2022/04/11 09:34:16;;;;;;;5.78;2.30;;;9.80;99.90;;;;;;5036172;28;20041;-78
2022/04/11 09:36:51;;;;;;;4.10;1.70;;;10.20;99.90;;;;;;5039449;28;20037;-77
2022/04/11 09:39:24;;;;;;;4.30;1.70;;;10.10;99.90;;;;;;5046379;28;20029;-77
2022/04/11 09:41:51;;;;;;;6.47;1.97;;;10.20;99.90;;;;;;5050337;28;20037;-77
2022/04/11 09:44:26;;;;;;;4.97;1.98;;;10.30;99.90;;;;;;5049770;28;20052;-77
2022/04/11 09:47:04;;;;;;;4.43;1.90;;;10.40;99.90;;;;;;5036514;28;20139;-78
2022/04/11 09:49:33;;;;;;;7.32;2.10;;;10.60;99.90;;;;;;5048373;28;20049;-78
2022/04/11 09:52:08;;;;;;;6.32;2.03;;;10.60;99.90;;;;;;5040595;28;20045;-77
2022/04/11 09:54:57;;;;;;;5.65;1.83;;;10.70;99.90;;;;;;5039814;28;20760;-78
2022/04/11 09:57:30;;;;;;;5.32;2.13;;;10.90;99.90;;;;;;5017626;28;20456;-78
2022/04/11 10:00:00;;;;;;;4.88;1.92;;;11.00;99.90;;;;;;5032851;28;20410;-74
2022/04/11 10:02:27;;;;;;;7.95;1.98;;;11.10;99.90;;;;;;5040143;28;20925;-78
2022/04/11 10:04:53;;;;;;;7.63;1.80;;;11.20;99.90;;;;;;5042994;28;20060;-77
2022/04/11 10:07:20;;;;;;;6.47;1.95;;;11.30;99.90;;;;;;5039374;28;20497;-77
2022/04/11 10:09:50;;;;;;;7.88;1.60;;;11.40;99.90;;;;;;5044242;28;20049;-78
2022/04/11 10:12:17;;;;;;;5.72;1.75;;;11.40;99.90;;;;;;5040492;28;20413;-77
2022/04/11 10:14:46;;;;;;;4.07;1.70;;;11.70;99.90;;;;;;5043304;28;20800;-78
2022/04/11 10:17:11;;;;;;;6.90;1.88;;;11.80;99.90;;;;;;5044616;28;20045;-78
2022/04/11 10:19:39;;;;;;;6.22;1.73;;;11.90;99.90;;;;;;5020724;28;20127;-78
2022/04/11 10:22:36;;;;;;;4.85;1.92;;;12.00;99.90;;;;;;5038370;28;20081;-76
2022/04/11 10:25:07;;;;;;;5.70;1.77;;;12.00;99.90;;;;;;5040557;28;20053;-76
2022/04/11 10:27:34;;;;;;;5.20;1.70;;;12.20;99.80;;;;;;5039114;28;20043;-76
2022/04/11 10:30:02;;;;;;;5.65;1.90;;;12.20;99.90;;;;;;5036805;28;20488;-76
2022/04/11 10:32:29;;;;;;;4.85;1.33;;;12.30;99.90;;;;;;5040095;28;20048;-77
2022/04/11 10:35:02;;;;;;;3.95;1.83;;;12.40;99.80;;;;;;5050630;28;20052;-79
2022/04/11 10:37:40;;;;;;;6.68;1.85;;;12.50;99.00;;;;;;5049791;28;20045;-79
2022/04/11 10:40:21;;;;;;;4.85;1.70;;;12.80;97.40;;;;;;5043637;28;20052;-78
2022/04/11 10:43:08;;;;;;;7.00;1.90;;;12.70;95.70;;;;;;5032858;28;20045;-75
2022/04/11 10:45:54;;;;;;;6.80;1.92;;;12.80;92.50;;;;;;5059317;28;20106;-75
2022/04/11 10:48:57;;;;;;;6.22;2.15;;;12.80;95.00;;;;;;5037387;28;20049;-79
2022/04/11 10:51:23;;;;;;;4.93;1.80;;;13.00;95.20;;;;;;5040465;28;20458;-80
2022/04/11 10:54:18;;;;;;;4.38;1.60;;;13.10;94.30;;;;;;5035624;28;20128;-75
2022/04/11 10:56:53;;;;;;;8.25;1.63;;;13.20;93.70;;;;;;5043476;28;20554;-79
2022/04/11 10:59:51;;;;;;;5.47;1.83;;;13.30;93.30;;;;;;5047245;28;20154;-79
2022/04/11 11:02:18;;;;;;;6.18;1.70;;;13.40;93.00;;;;;;5041796;28;20048;-79
2022/04/11 11:04:43;;;;;;;3.95;1.38;;;13.50;93.30;;;;;;5041486;28;20110;-79
2022/04/11 11:07:25;;;;;;;4.05;1.58;;;13.60;91.30;;;;;;5043186;28;20452;-79
2022/04/11 11:09:57;;;;;;;5.28;1.92;;;13.70;87.00;;;;;;5040691;28;20116;-79
2022/04/11 11:12:25;;;;;;;5.80;1.90;;;13.90;90.90;;;;;;5041296;28;20849;-79
2022/04/11 11:14:51;;;;;;;6.38;1.65;;;14.00;90.50;;;;;;5038545;28;20472;-79
2022/04/11 11:17:16;;;;;;;5.90;1.98;;;14.00;90.20;;;;;;5026060;28;20115;-79
2022/04/11 11:20:07;;;;;;;5.47;1.92;;;14.10;85.40;;;;;;5046198;28;20049;-79
2022/04/11 11:22:54;;;;;;;4.88;1.80;;;14.10;81.90;;;;;;5047922;28;20088;-80
2022/04/11 11:25:20;;;;;;;7.85;2.15;;;14.20;86.00;;;;;;5044142;28;20183;-79
2022/04/11 11:27:46;;;;;;;6.88;2.22;;;14.30;84.30;;;;;;5048331;28;20045;-80
2022/04/11 11:30:13;;;;;;;6.03;2.17;;;14.30;78.80;;;;;;5048967;28;20045;-80
2022/04/11 11:32:41;;;;;;;5.85;2.55;;;14.40;82.10;;;;;;5050344;28;20057;-79
2022/04/11 11:35:11;;;;;;;6.72;2.30;;;14.40;81.40;;;;;;5049884;28;20048;-80
2022/04/11 11:37:39;;;;;;;8.18;2.40;;;14.50;77.80;;;;;;5047461;28;20055;-80
2022/04/11 11:40:05;;;;;;;5.32;2.30;;;14.50;79.30;;;;;;5048384;28;20033;-77
2022/04/11 11:42:36;;;;;;;4.57;2.00;;;14.60;79.90;;;;;;5042796;28;20114;-78
2022/04/11 11:45:03;;;;;;;6.30;2.60;;;14.60;79.50;;;;;;5042751;28;20037;-79
2022/04/11 11:47:29;;;;;;;7.68;2.35;;;14.70;80.70;;;;;;5042888;28;20053;-79
2022/04/11 11:50:05;;;;;;;5.72;2.78;;;14.80;79.60;;;;;;5040674;28;20565;-78
2022/04/11 11:52:32;;;;;;;5.40;2.30;;;14.90;78.60;;;;;;5039764;28;20052;-78
2022/04/11 11:54:58;;;;;;;5.55;2.45;;;14.90;79.70;;;;;;5039146;28;20080;-78
2022/04/11 11:57:25;;;;;;;5.32;2.25;;;14.90;79.80;;;;;;5037392;28;20053;-79
2022/04/11 12:00:02;;;;;;;4.97;2.22;;;15.00;80.50;;;;;;5044351;28;20403;-78
2022/04/11 12:05:18;;;;;;;4.78;2.33;;;15.30;79.90;;;;;;5039565;28;20131;-77
2022/04/11 12:07:46;;;;;;;7.82;3.17;;;15.40;80.20;;;;;;5043158;28;20477;-76
2022/04/11 12:10:12;;;;;;;6.45;2.90;;;15.50;76.80;;;;;;5046188;28;20519;-81
2022/04/11 12:12:38;;;;;;;7.47;2.83;;;15.50;74.50;;;;;;5048918;28;20049;-77
2022/04/11 12:15:09;;;;;;;6.53;2.70;;;15.50;76.70;;;;;;5026300;28;20411;-76
2022/04/11 12:17:45;;;;;;;8.43;3.08;;;15.60;76.50;;;;;;5044187;28;20046;-77
2022/04/11 12:20:17;;;;;;;5.68;2.60;;;15.70;76.40;;;;;;5045452;28;20114;-77
2022/04/11 12:23:07;;;;;;;6.38;2.80;;;15.70;74.80;;;;;;5042219;28;20136;-77
2022/04/11 12:25:41;;;;;;;7.30;2.95;;;15.80;73.10;;;;;;5048715;28;20075;-77
2022/04/11 12:28:20;;;;;;;6.13;2.60;;;15.80;73.50;;;;;;5051161;28;20051;-77
2022/04/11 12:31:17;;;;;;;5.13;2.10;;;15.90;75.90;;;;;;5044669;28;20052;-77
2022/04/11 12:33:51;;;;;;;8.57;2.85;;;16.00;72.80;;;;;;5037596;28;20417;-77
2022/04/11 12:36:27;;;;;;;5.93;2.85;;;16.00;74.40;;;;;;5047435;28;20409;-79
2022/04/11 12:38:59;;;;;;;6.15;3.28;;;16.10;72.70;;;;;;5041995;28;20578;-81
2022/04/11 12:41:43;;;;;;;5.18;2.58;;;16.10;70.70;;;;;;5042642;28;20118;-80
2022/04/11 12:44:34;;;;;;;6.45;3.00;;;16.10;72.10;;;;;;5051139;28;20069;-77
2022/04/11 12:47:04;;;;;;;6.35;2.40;;;16.20;72.00;;;;;;5045000;28;20134;-79
2022/04/11 12:49:56;;;;;;;6.43;2.70;;;16.20;72.10;;;;;;5047759;28;20037;-79
2022/04/11 12:52:26;;;;;;;8.63;2.85;;;16.30;68.60;;;;;;5042863;28;20041;-77
2022/04/11 12:55:04;;;;;;;5.85;2.85;;;16.40;71.80;;;;;;5047123;28;20037;-80
2022/04/11 12:57:32;;;;;;;6.95;2.90;;;16.30;69.60;;;;;;5043501;28;20057;-78
2022/04/11 13:00:16;;;;;;;5.30;2.55;;;16.30;71.10;;;;;;5047511;28;20056;-90
2022/04/11 13:02:45;;;;;;;6.07;2.45;;;16.30;68.90;;;;;;5047800;28;20045;-78
2022/04/11 13:05:15;;;;;;;6.80;2.85;;;16.30;72.50;;;;;;5049593;28;20037;-80